createdAt,value
2024-01-31T00:03:46.186Z,72.05
2024-01-31T00:18:47.979Z,72.12
2024-01-31T00:33:49.781Z,72.17
2024-01-31T00:48:51.631Z,74.25
2024-01-31T01:03:53.378Z,72.02
2024-01-31T01:18:55.247Z,73.24
2024-01-31T01:33:57.442Z,72.46
2024-01-31T01:48:59.930Z,72.31
2024-01-31T02:04:02.340Z,71.78
2024-01-31T02:19:04.371Z,73.25
2024-01-31T02:34:06.349Z,75.75
2024-01-31T02:49:09.336Z,73.78
2024-01-31T03:04:11.403Z,74.10
2024-01-31T03:19:13.270Z,74.62
2024-01-31T03:34:15.743Z,75.23
2024-01-31T03:49:17.705Z,74.93
2024-01-31T04:04:19.835Z,76.93
2024-01-31T04:19:21.788Z,75.55
2024-01-31T04:34:23.826Z,76.64
2024-01-31T04:49:25.896Z,78.43
2024-01-31T05:04:27.856Z,74.51
2024-01-31T05:19:31.156Z,74.09
2024-01-31T05:34:33.448Z,74.38
2024-01-31T05:49:35.422Z,74.24
2024-01-31T06:04:37.462Z,75.59
2024-01-31T06:19:39.638Z,75.92
2024-01-31T06:34:41.754Z,71.10
2024-01-31T06:49:43.655Z,69.12
2024-01-31T07:04:45.462Z,68.72
2024-01-31T07:19:47.272Z,68.32
2024-01-31T07:34:49.075Z,67.69
2024-01-31T07:49:50.975Z,66.71
2024-01-31T08:04:55.917Z,66.13
2024-01-31T08:19:57.890Z,64.37
2024-01-31T08:35:00.395Z,65.27
2024-01-31T08:50:02.376Z,64.77
2024-01-31T09:05:04.368Z,63.40
2024-01-31T09:20:07.765Z,63.82
2024-01-31T09:35:09.758Z,61.77
2024-01-31T09:50:13.482Z,60.74
2024-01-31T10:05:15.681Z,61.14
2024-01-31T10:20:17.503Z,59.91
2024-01-31T10:35:28.483Z,56.77
2024-01-31T10:50:43.500Z,55.45
2024-01-31T11:05:45.645Z,55.70
2024-01-31T11:20:51.149Z,50.73
2024-01-31T11:35:53.228Z,49.17
2024-01-31T11:50:56.820Z,45.05
2024-01-31T12:05:59.501Z,43.21
2024-01-31T12:21:06.049Z,41.00
2024-01-31T12:36:12.186Z,42.97
2024-01-31T12:51:14.203Z,40.94
2024-01-31T13:06:16.227Z,40.13
2024-01-31T13:21:18.543Z,41.54
2024-01-31T13:36:21.697Z,42.26
2024-01-31T13:51:23.416Z,41.49
2024-01-31T14:06:25.224Z,42.69
2024-01-31T14:21:27.042Z,42.97
2024-01-31T14:36:29.946Z,45.72
2024-01-31T14:51:31.592Z,43.39
2024-01-31T15:06:40.481Z,46.43
2024-01-31T15:21:42.374Z,43.77
2024-01-31T15:36:47.148Z,46.38
2024-01-31T15:51:49.320Z,45.93
2024-01-31T16:07:00.174Z,48.44
2024-01-31T16:22:02.039Z,47.69
2024-01-31T16:37:04.034Z,47.28
2024-01-31T16:52:06.164Z,44.90
2024-01-31T17:07:08.049Z,44.25
2024-01-31T17:22:10.027Z,48.33
2024-01-31T17:37:12.060Z,52.00
2024-01-31T17:52:14.038Z,50.49
2024-01-31T18:07:16.043Z,50.22
2024-01-31T18:22:18.213Z,51.33
2024-01-31T18:37:23.340Z,52.33
2024-01-31T18:52:25.515Z,50.74
2024-01-31T19:07:27.475Z,52.21
2024-01-31T19:22:29.385Z,51.93
2024-01-31T19:37:31.963Z,51.78
2024-01-31T19:52:34.881Z,52.95
2024-01-31T20:07:36.916Z,52.22
2024-01-31T20:22:39.878Z,52.74
2024-01-31T20:37:42.083Z,54.09
2024-01-31T20:52:44.094Z,53.75
2024-01-31T21:07:45.970Z,53.21
2024-01-31T21:22:47.744Z,52.00
2024-01-31T21:37:54.024Z,53.90
2024-01-31T21:52:58.068Z,53.80
2024-01-31T22:07:59.876Z,55.28
2024-01-31T22:23:01.623Z,54.61
2024-01-31T22:38:05.134Z,56.21
2024-01-31T22:53:06.818Z,56.39
2024-01-31T23:08:08.735Z,56.54
2024-01-31T23:23:10.480Z,55.91
2024-01-31T23:38:12.324Z,57.24
2024-01-31T23:53:14.176Z,56.34
